James Clark Ross — ZDLP — position and weather

sailwx.info

Track history (hours):
 
Tides and Currents Weather Stations Pressure Air Temp Water Temp Dewpoint Dewpoint Depression Visibility Wind Speed Wind Dir Waves Ship Positions

Oceanographic research ship James Clark Ross (UK)

Detailed information on ship capabilities available from University of Delaware's Ocean Information Center and ARCUS's ALIAS (Arctic Logistics Information and Support) project.

Last reported at 2018-Aug-14 09:34 UTC. Time now 2018-Aug-15 12:39 UTC.
Position N 57°26' E 010°33'.

Length 99 m; beam 18.8 m; draft 6.3 m.

Type: Ship. MMSI: 740339000.

Date/timePositionNaut miles runAvg speedWind from/ knotsBaromVisibWave heightAir tempDewpointWater temp
2018-Aug-14 09:34N 57°26' E 010°33'0 0.4
2018-Aug-14 09:27N 57°26' E 010°33'2 4.0
2018-Aug-14 08:59N 57°25' E 010°36'4 8.0
2018-Aug-14 08:29N 57°26' E 010°43'5 9.4
2018-Aug-14 08:00N 57°31' E 010°43'4 9.0
2018-Aug-14 07:30N 57°35' E 010°44'5 9.4
2018-Aug-14 07:00N 57°40' E 010°44'5 9.3
2018-Aug-14 06:30N 57°45' E 010°45'4 7.8
2018-Aug-14 06:00N 57°48' E 010°41'5 9.1
2018-Aug-14 05:30N 57°49' E 010°32'5 9.2
2018-Aug-14 05:00N 57°48' E 010°24'308 9.3
2018-Aug-12 19:54N 53°42' E 004°53'910.0
2018-Aug-12 18:59N 53°34' E 004°47'611.4
2018-Aug-12 18:29N 53°28' E 004°44'510.8
2018-Aug-12 18:00N 53°24' E 004°41'5 9.9
2018-Aug-12 17:30N 53°19' E 004°38'510.0
2018-Aug-12 17:01N 53°15' E 004°34'510.1
2018-Aug-12 16:30N 53°10' E 004°31'510.0
2018-Aug-12 16:00N 53°05' E 004°27'510.1
2018-Aug-12 15:30N 53°01' E 004°23'510.0
2018-Aug-12 15:00N 52°57' E 004°19'510.1
2018-Aug-12 14:30N 52°52' E 004°15'510.1
2018-Aug-12 14:00N 52°48' E 004°11'510.0
2018-Aug-12 13:29N 52°44' E 004°06'510.4
2018-Aug-12 13:00N 52°40' E 003°60'510.6
2018-Aug-12 12:30N 52°36' E 003°54'510.2
2018-Aug-12 11:59N 52°32' E 003°48'510.5
2018-Aug-12 11:28N 52°29' E 003°42'510.6
2018-Aug-12 11:00N 52°25' E 003°36'510.5
2018-Aug-12 10:30N 52°21' E 003°30'510.4
2018-Aug-12 09:59N 52°17' E 003°24'510.3
2018-Aug-12 09:30N 52°14' E 003°18'3610.3
2018-Aug-12 06:02N 51°48' E 002°38'010.4
2018-Aug-12 06:00N 51°48' E 002°38'610.4
2018-Aug-12 05:28N 51°43' E 002°32'510.3
2018-Aug-12 05:00N 51°40' E 002°27'510.3
2018-Aug-12 04:31N 51°36' E 002°21'510.3
2018-Aug-12 04:00N 51°32' E 002°16'510.3
2018-Aug-12 03:30N 51°28' E 002°11'510.3
2018-Aug-12 03:00N 51°23' E 002°07'510.4
2018-Aug-12 02:31N 51°18' E 002°06'510.1
2018-Aug-12 02:01N 51°13' E 002°03'510.3
2018-Aug-12 01:30N 51°11' E 001°56'510.3
2018-Aug-12 01:00N 51°09' E 001°48'510.2
2018-Aug-12 00:30N 51°05' E 001°42'510.5
2018-Aug-12 00:01N 51°02' E 001°36'510.6
2018-Aug-11 23:30N 50°58' E 001°31'510.5
2018-Aug-11 23:00N 50°53' E 001°26'510.6
2018-Aug-11 22:30N 50°48' E 001°24'510.6
2018-Aug-11 22:00N 50°43' E 001°21'610.3
2018-Aug-11 21:25N 50°39' E 001°15'1510.4
2018-Aug-11 19:56N 50°30' E 000°55'2810.4
2018-Aug-11 17:13N 50°22' E 000°12'1610.4
2018-Aug-11 15:40N 50°21' W 000°13'210.5
2018-Aug-11 15:31N 50°21' W 000°16'910.3
2018-Aug-11 14:36N 50°24' W 000°29'1611.0
2018-Aug-11 13:09N 50°35' W 000°48'2 9.8
2018-Aug-11 12:54N 50°36' W 000°51'410.2
2018-Aug-11 12:30N 50°37' W 000°57'511.0
2018-Aug-11 12:00N 50°43' W 000°59'510.9
2018-Aug-11 11:30N 50°45' W 001°07'510.8
2018-Aug-11 11:00N 50°48' W 001°14'5 9.0
2018-Aug-11 10:30N 50°51' W 001°20'4 7.4
2018-Aug-11 10:00N 50°53' W 001°24'0 0.0
2018-Aug-11 09:27N 50°54' W 001°24'0 0.0
2018-Aug-11 08:58N 50°54' W 001°24'0 0.0
2018-Aug-11 08:28N 50°54' W 001°24'0 0.0
2018-Aug-11 07:58N 50°54' W 001°24'0 0.0
2018-Aug-11 07:28N 50°54' W 001°24'0 0.0
2018-Aug-11 06:58N 50°54' W 001°24'0 0.0
2018-Aug-11 06:28N 50°54' W 001°24'0 0.0
2018-Aug-11 05:58N 50°54' W 001°24'0 0.0
2018-Aug-11 05:28N 50°54' W 001°24'0 0.0
2018-Aug-11 04:58N 50°54' W 001°24'0 0.0
2018-Aug-11 04:25N 50°54' W 001°24'0 0.0
2018-Aug-11 03:58N 50°54' W 001°24'0 0.0
2018-Aug-11 03:28N 50°54' W 001°24'0 0.0
2018-Aug-11 02:58N 50°54' W 001°24'0 0.0
2018-Aug-11 02:28N 50°54' W 001°24'0 0.0
2018-Aug-11 01:49N 50°54' W 001°24'0 0.0
2018-Aug-11 01:28N 50°54' W 001°24'0 0.0
2018-Aug-11 00:58N 50°54' W 001°24'0 0.0
2018-Aug-11 00:25N 50°54' W 001°24'0 0.0
2018-Aug-10 23:58N 50°54' W 001°24'0 0.0
2018-Aug-10 23:25N 50°54' W 001°24'0 0.0
2018-Aug-10 22:58N 50°54' W 001°24'0 0.0
2018-Aug-10 22:31N 50°54' W 001°24'0 0.0
2018-Aug-10 21:58N 50°54' W 001°24'0 0.0
2018-Aug-10 21:25N 50°54' W 001°24'0 0.0
2018-Aug-10 20:58N 50°54' W 001°24'0 0.0
2018-Aug-10 20:25N 50°54' W 001°24'0 0.0
2018-Aug-10 19:58N 50°54' W 001°24'0 0.0
2018-Aug-10 19:28N 50°54' W 001°24'0 0.0
2018-Aug-10 18:55N 50°54' W 001°24'0 0.0
2018-Aug-10 18:28N 50°54' W 001°24'0 0.0
2018-Aug-10 17:55N 50°54' W 001°24'0 0.0
2018-Aug-10 17:28N 50°54' W 001°24'0 0.0
2018-Aug-10 16:58N 50°54' W 001°24'0 0.0
2018-Aug-10 16:28N 50°54' W 001°24'0 0.0
2018-Aug-10 15:58N 50°54' W 001°24'0 0.0
2018-Aug-10 15:31N 50°54' W 001°24'0 0.0
2018-Aug-10 14:58N 50°54' W 001°24'0 0.0
2018-Aug-10 14:28N 50°54' W 001°24'0 0.0
2018-Aug-10 13:58N 50°54' W 001°24'0 0.0
2018-Aug-10 13:28N 50°54' W 001°24'0 0.0
2018-Aug-10 12:52N 50°54' W 001°24'0 0.0
2018-Aug-10 12:28N 50°54' W 001°24'0 0.0
2018-Aug-10 11:58N 50°54' W 001°24'0 0.0
2018-Aug-10 11:28N 50°54' W 001°24'0 0.0
2018-Aug-10 10:58N 50°54' W 001°24'0 0.0
2018-Aug-10 10:19N 50°54' W 001°24'0 0.0
2018-Aug-10 09:58N 50°54' W 001°24'0 0.0
2018-Aug-10 09:28N 50°54' W 001°24'0 0.0
2018-Aug-10 08:58N 50°54' W 001°24'0 0.0
2018-Aug-10 08:28N 50°54' W 001°24'0 0.0
2018-Aug-10 07:54N 50°54' W 001°24'0 0.0
2018-Aug-10 07:25N 50°54' W 001°24'0 0.0
2018-Aug-10 07:00N 50°54' W 001°24'0 0.0
2018-Aug-10 06:25N 50°54' W 001°24'0 0.0
2018-Aug-10 06:00N 50°54' W 001°24'0 0.0
2018-Aug-10 05:27N 50°54' W 001°24'0 0.0
2018-Aug-10 04:58N 50°54' W 001°24'0 0.0
2018-Aug-10 04:27N 50°54' W 001°24'0 0.0
2018-Aug-10 03:58N 50°54' W 001°24'0 0.0
2018-Aug-10 03:30N 50°54' W 001°24'0 0.0
2018-Aug-10 03:00N 50°54' W 001°24'0 0.0
2018-Aug-10 02:28N 50°54' W 001°24'0 0.0
2018-Aug-10 02:01N 50°54' W 001°24'0 0.0
2018-Aug-10 01:28N 50°54' W 001°24'0 0.0
2018-Aug-10 01:01N 50°54' W 001°24'0 0.0
2018-Aug-10 00:30N 50°54' W 001°24'0 0.0
2018-Aug-10 00:00N 50°54' W 001°24'0 0.0
2018-Aug-09 23:31N 50°54' W 001°24'0 0.0
2018-Aug-09 23:01N 50°54' W 001°24'0 0.0
2018-Aug-09 22:30N 50°54' W 001°24'0 0.0
2018-Aug-09 22:00N 50°54' W 001°24'0 0.0
2018-Aug-09 21:30N 50°54' W 001°24'0 0.0
2018-Aug-09 21:00N 50°54' W 001°24'0 0.0
2018-Aug-09 20:25N 50°54' W 001°24'0 0.0
2018-Aug-09 20:01N 50°54' W 001°24'0 0.0
2018-Aug-09 19:30N 50°54' W 001°24'0 0.0
2018-Aug-09 19:00N 50°54' W 001°24'0 0.0
2018-Aug-09 18:27N 50°54' W 001°24'0 0.0
2018-Aug-09 18:01N 50°54' W 001°24'0 0.0
2018-Aug-09 17:30N 50°54' W 001°24'0 0.0
2018-Aug-09 17:00N 50°54' W 001°24'0 0.0
2018-Aug-09 16:30N 50°54' W 001°24'0 0.0
2018-Aug-09 16:00N 50°54' W 001°24'0 0.0
2018-Aug-09 15:30N 50°54' W 001°24'0 0.0
2018-Aug-09 14:43N 50°54' W 001°24'0 0.0
2018-Aug-09 14:25N 50°54' W 001°24'0 0.0
2018-Aug-09 14:00N 50°54' W 001°24'0 0.0
2018-Aug-09 13:30N 50°54' W 001°24'0 0.0
2018-Aug-09 13:01N 50°54' W 001°24'0 0.0
2018-Aug-09 12:31N 50°54' W 001°24'0 0.0
2018-Aug-09 12:00N 50°54' W 001°24'0 0.0
2018-Aug-09 11:30N 50°54' W 001°24'0 0.0
2018-Aug-09 11:00N 50°54' W 001°24'0 0.0
2018-Aug-09 10:30N 50°54' W 001°24'0 0.0
2018-Aug-09 10:00N 50°54' W 001°24'0 0.0
2018-Aug-09 09:30N 50°54' W 001°24'0 0.0
2018-Aug-09 09:00N 50°54' W 001°24'0 0.0
2018-Aug-09 08:27N 50°54' W 001°24'0 0.0
2018-Aug-09 08:01N 50°54' W 001°24'0 0.0
2018-Aug-09 07:30N 50°54' W 001°24'0 0.0
2018-Aug-09 07:00N 50°54' W 001°24'0 0.0
2018-Aug-09 06:31N 50°54' W 001°24'0 0.0
2018-Aug-09 06:00N 50°54' W 001°24'0 0.0
2018-Aug-09 05:30N 50°54' W 001°24'0 0.0
2018-Aug-09 04:57N 50°54' W 001°24'0 0.0
2018-Aug-09 04:30N 50°54' W 001°24'0 0.0
2018-Aug-09 04:00N 50°54' W 001°24'0 0.0
2018-Aug-09 03:30N 50°54' W 001°24'0 0.0
2018-Aug-09 03:00N 50°54' W 001°24'0 0.0
2018-Aug-09 02:30N 50°54' W 001°24'0 0.0
2018-Aug-09 02:00N 50°54' W 001°24'0 0.0
2018-Aug-09 01:30N 50°54' W 001°24'0 0.0
2018-Aug-09 01:00N 50°54' W 001°24'0 0.0
2018-Aug-09 00:30N 50°54' W 001°24'0 0.0
2018-Aug-09 00:00N 50°54' W 001°24'0 0.0
2018-Aug-08 23:30N 50°54' W 001°24'0 0.0
2018-Aug-08 23:00N 50°54' W 001°24'0 0.0
2018-Aug-08 22:30N 50°54' W 001°24'0 0.0
2018-Aug-08 22:00N 50°54' W 001°24'0 0.0
2018-Aug-08 21:30N 50°54' W 001°24'0 0.0
2018-Aug-08 21:00N 50°54' W 001°24'0 0.0
2018-Aug-08 20:30N 50°54' W 001°24'0 0.0
2018-Aug-08 20:00N 50°54' W 001°24'0 0.0
2018-Aug-08 19:30N 50°54' W 001°24'0 0.0
2018-Aug-08 19:00N 50°54' W 001°24'0 0.0
2018-Aug-08 18:30N 50°54' W 001°24'0 0.0
2018-Aug-08 18:00N 50°54' W 001°24'0 0.0
2018-Aug-08 17:27N 50°54' W 001°24'0 0.0
2018-Aug-08 17:00N 50°54' W 001°24'0 0.0
2018-Aug-08 16:30N 50°54' W 001°24'0 0.0
2018-Aug-08 16:00N 50°54' W 001°24'0 0.0
2018-Aug-08 15:30N 50°54' W 001°24'0 0.0
2018-Aug-08 15:00N 50°54' W 001°24'0 0.0
2018-Aug-08 14:27N 50°54' W 001°24'0 0.0
2018-Aug-08 14:00N 50°54' W 001°24'0 0.0
2018-Aug-08 13:30N 50°54' W 001°24'0 0.0
2018-Aug-08 12:57N 50°54' W 001°24'0 0.0
2018-Aug-08 12:27N 50°54' W 001°24'0 0.0
2018-Aug-08 12:00N 50°54' W 001°24'0 0.0
2018-Aug-08 11:24N 50°54' W 001°24'0 0.0
2018-Aug-08 10:54N 50°54' W 001°24'0 0.0
2018-Aug-08 10:30N 50°54' W 001°24'0 0.0
2018-Aug-08 09:51N 50°54' W 001°24'0 0.0
2018-Aug-08 09:30N 50°54' W 001°24'0 0.0
2018-Aug-08 08:57N 50°54' W 001°24'0 0.0
2018-Aug-08 08:30N 50°54' W 001°24'0 0.0
2018-Aug-08 08:00N 50°54' W 001°24'0 0.0
2018-Aug-08 07:27N 50°54' W 001°24'0 0.0
2018-Aug-08 07:00N 50°54' W 001°24'0 0.0
2018-Aug-08 06:30N 50°54' W 001°24'0 0.0
2018-Aug-08 06:00N 50°54' W 001°24'0 0.0
2018-Aug-08 05:30N 50°54' W 001°24'0 0.0
2018-Aug-08 05:00N 50°54' W 001°24'0 0.0
2018-Aug-08 04:30N 50°54' W 001°24'0 0.0
2018-Aug-08 03:57N 50°54' W 001°24'0 0.0
2018-Aug-08 03:30N 50°54' W 001°24'0 0.0
2018-Aug-08 03:00N 50°54' W 001°24'0 0.0
2018-Aug-08 02:30N 50°54' W 001°24'0 0.0
2018-Aug-08 02:00N 50°54' W 001°24'0 0.0
2018-Aug-08 01:30N 50°54' W 001°24'0 0.0
2018-Aug-08 00:57N 50°54' W 001°24'0 0.0
2018-Aug-08 00:27N 50°54' W 001°24'0 0.0
2018-Aug-07 23:57N 50°54' W 001°24'0 0.0
2018-Aug-07 23:30N 50°54' W 001°24'0 0.0
2018-Aug-07 23:00N 50°54' W 001°24'0 0.0
2018-Aug-07 22:30N 50°54' W 001°24'0 0.0
2018-Aug-07 22:00N 50°54' W 001°24'0 0.0
2018-Aug-07 21:30N 50°54' W 001°24'0 0.0
2018-Aug-07 21:00N 50°54' W 001°24'0 0.0
2018-Aug-07 20:30N 50°54' W 001°24'0 0.0
2018-Aug-07 19:57N 50°54' W 001°24'0 0.0
2018-Aug-07 19:30N 50°54' W 001°24'0 0.0
2018-Aug-07 18:57N 50°54' W 001°24'0 0.0
2018-Aug-07 18:30N 50°54' W 001°24'0 0.0
2018-Aug-07 18:00N 50°54' W 001°24'0 0.0
2018-Aug-07 17:30N 50°54' W 001°24'0 0.0
2018-Aug-07 17:00N 50°54' W 001°24'0 0.0
2018-Aug-07 16:30N 50°54' W 001°24'0 0.0
2018-Aug-07 16:00N 50°54' W 001°24'0 0.0
2018-Aug-07 15:30N 50°54' W 001°24'0 0.0
2018-Aug-07 15:00N 50°54' W 001°24'0 0.0
2018-Aug-07 14:30N 50°54' W 001°24'0 0.0
2018-Aug-07 14:00N 50°54' W 001°24'0 0.0
2018-Aug-07 13:30N 50°54' W 001°24'0 0.0
2018-Aug-07 13:00N 50°54' W 001°24'0 0.0
2018-Aug-07 12:27N 50°54' W 001°24'0 0.0
2018-Aug-07 12:00N 50°54' W 001°24'0 0.0
2018-Aug-07 11:30N 50°54' W 001°24'0 0.0
2018-Aug-07 11:00N 50°54' W 001°24'0 0.0
2018-Aug-07 10:30N 50°54' W 001°24'0 0.0
2018-Aug-07 10:00N 50°54' W 001°24'0 0.0
2018-Aug-07 09:30N 50°54' W 001°24'0 0.0
2018-Aug-07 09:00N 50°54' W 001°24'0 0.0
2018-Aug-07 08:30N 50°54' W 001°24'0 0.0
2018-Aug-07 08:00N 50°54' W 001°24'0 0.0
2018-Aug-07 07:30N 50°54' W 001°24'0 0.0
2018-Aug-07 07:00N 50°54' W 001°24'0 0.0
2018-Aug-07 06:30N 50°54' W 001°24'0 0.0
2018-Aug-07 06:00N 50°54' W 001°24'0 0.0
2018-Aug-07 05:30N 50°54' W 001°24'0 0.0
2018-Aug-07 05:00N 50°54' W 001°24'0 0.0
2018-Aug-07 04:27N 50°54' W 001°24'0 0.0
2018-Aug-07 04:00N 50°54' W 001°24'0 0.0
2018-Aug-07 03:30N 50°54' W 001°24'0 0.0
2018-Aug-07 03:00N 50°54' W 001°24'0 0.0
2018-Aug-07 02:30N 50°54' W 001°24'0 0.0
2018-Aug-07 02:00N 50°54' W 001°24'0 0.0
2018-Aug-07 01:30N 50°54' W 001°24'0 0.0
2018-Aug-07 01:00N 50°54' W 001°24'0 0.0
2018-Aug-07 00:30N 50°54' W 001°24'0 0.0
2018-Aug-07 00:00N 50°54' W 001°24'0 0.0
2018-Aug-06 23:30N 50°54' W 001°24'0 0.0
2018-Aug-06 23:00N 50°54' W 001°24'0 0.0
2018-Aug-06 22:30N 50°54' W 001°24'0 0.0
2018-Aug-06 22:00N 50°54' W 001°24'0 0.0
2018-Aug-06 21:30N 50°54' W 001°24'0 0.0
2018-Aug-06 21:00N 50°54' W 001°24'0 0.0
2018-Aug-06 20:30N 50°54' W 001°24'0 0.0
2018-Aug-06 20:00N 50°54' W 001°24'0 0.0
2018-Aug-06 19:30N 50°54' W 001°24'0 0.0
2018-Aug-06 19:00N 50°54' W 001°24'0 0.0
2018-Aug-06 18:30N 50°54' W 001°24'0 0.0
2018-Aug-06 18:00N 50°54' W 001°24'0 0.0
2018-Aug-06 17:30N 50°54' W 001°24'0 0.0
2018-Aug-06 17:00N 50°54' W 001°24'0 0.0
2018-Aug-06 16:30N 50°54' W 001°24'0 0.0
2018-Aug-06 15:57N 50°54' W 001°24'0 0.0
2018-Aug-06 15:30N 50°54' W 001°24'0 0.0
2018-Aug-06 15:00N 50°54' W 001°24'0 0.0
2018-Aug-06 14:30N 50°54' W 001°24'0 0.0
2018-Aug-06 14:00N 50°54' W 001°24'0 0.0
2018-Aug-06 13:30N 50°54' W 001°24'0 0.0
2018-Aug-06 12:57N 50°54' W 001°24'0 0.0
2018-Aug-06 12:30N 50°54' W 001°24'0 0.0
2018-Aug-06 12:00N 50°54' W 001°24'0 0.0
2018-Aug-06 11:30N 50°54' W 001°24'0 0.0
2018-Aug-06 10:54N 50°54' W 001°24'0 0.0
2018-Aug-06 10:30N 50°54' W 001°24'0 0.0
2018-Aug-06 09:54N 50°54' W 001°24'0 0.0
2018-Aug-06 09:30N 50°54' W 001°24'0 0.0
2018-Aug-06 09:00N 50°54' W 001°24'0 0.0
2018-Aug-06 08:30N 50°54' W 001°24'0 0.0
2018-Aug-06 08:00N 50°54' W 001°24'0 0.0
2018-Aug-06 07:30N 50°54' W 001°24'0 0.0
2018-Aug-06 06:57N 50°54' W 001°24'0 0.0
2018-Aug-06 06:30N 50°54' W 001°24'0 0.0
2018-Aug-06 06:00N 50°54' W 001°24'0 0.0
2018-Aug-06 05:30N 50°54' W 001°24'0 0.0
2018-Aug-06 05:00N 50°54' W 001°24'0 0.0
2018-Aug-06 04:30N 50°54' W 001°24'0 0.0
2018-Aug-06 03:57N 50°54' W 001°24'0 0.0
2018-Aug-06 03:30N 50°54' W 001°24'0 0.0
2018-Aug-06 03:00N 50°54' W 001°24'0 0.0
2018-Aug-06 02:27N 50°54' W 001°24'0 0.0
2018-Aug-06 02:00N 50°54' W 001°24'0 0.0
2018-Aug-06 01:30N 50°54' W 001°24'0 0.0
2018-Aug-06 01:00N 50°54' W 001°24'0 0.0
2018-Aug-06 00:30N 50°54' W 001°24'0 0.0
2018-Aug-06 00:00N 50°54' W 001°24'0 0.0
2018-Aug-05 23:30N 50°54' W 001°24'0 0.0
2018-Aug-05 22:57N 50°54' W 001°24'0 0.0
2018-Aug-05 22:30N 50°54' W 001°24'0 0.0
2018-Aug-05 22:00N 50°54' W 001°24'0 0.0
2018-Aug-05 21:30N 50°54' W 001°24'0 0.0
2018-Aug-05 21:00N 50°54' W 001°24'0 0.0
2018-Aug-05 20:30N 50°54' W 001°24'0 0.0
2018-Aug-05 20:00N 50°54' W 001°24'0 0.0
2018-Aug-05 19:30N 50°54' W 001°24'0 0.0
2018-Aug-05 19:00N 50°54' W 001°24'0 0.0
2018-Aug-05 18:30N 50°54' W 001°24'0 0.0
2018-Aug-05 18:00N 50°54' W 001°24'0 0.0
2018-Aug-05 17:30N 50°54' W 001°24'0 0.0
2018-Aug-05 17:00N 50°54' W 001°24'0 0.0
2018-Aug-05 16:30N 50°54' W 001°24'0 0.0
2018-Aug-05 16:00N 50°54' W 001°24'0 0.0
2018-Aug-05 15:27N 50°54' W 001°24'0 0.0
2018-Aug-05 15:00N 50°54' W 001°24'0 0.0
2018-Aug-05 13:57N 50°54' W 001°24'0 0.0
2018-Aug-05 13:30N 50°54' W 001°24'0 0.0
2018-Aug-05 12:57N 50°54' W 001°24'0 0.0
2018-Aug-05 12:30N 50°54' W 001°24'0 0.0
2018-Aug-05 12:00N 50°54' W 001°24'0 0.0
2018-Aug-05 11:30N 50°54' W 001°24'0 0.0
2018-Aug-05 11:00N 50°54' W 001°24'0 0.0
2018-Aug-05 10:30N 50°54' W 001°24'0 0.0
2018-Aug-05 10:00N 50°54' W 001°24'0 0.0
2018-Aug-05 09:30N 50°54' W 001°24'0 0.0
2018-Aug-05 09:00N 50°54' W 001°24'0 0.0
2018-Aug-05 08:30N 50°54' W 001°24'0 0.0
2018-Aug-05 07:57N 50°54' W 001°24'0 0.0
2018-Aug-05 07:30N 50°54' W 001°24'0 0.0
2018-Aug-05 07:00N 50°54' W 001°24'0 0.0
2018-Aug-05 06:30N 50°54' W 001°24'0 0.0
2018-Aug-05 06:00N 50°54' W 001°24'0 0.0
2018-Aug-05 05:30N 50°54' W 001°24'0 0.1
2018-Aug-05 05:00N 50°53' W 001°24'2 3.7
2018-Aug-05 04:30N 50°52' W 001°22'4 8.5
2018-Aug-05 04:01N 50°49' W 001°18'3 6.1
2018-Aug-05 03:30N 50°46' W 001°15'714.7
2018-Aug-05 03:00N 50°44' W 001°04'510.1
2018-Aug-05 02:30N 50°41' W 000°58'2 3.1
2018-Aug-05 02:01N 50°39' W 000°58'3 6.3
2018-Aug-05 01:30N 50°37' W 000°54'3 5.5
2018-Aug-05 01:01N 50°37' W 000°50'2 4.5
2018-Aug-05 00:30N 50°36' W 000°47'2 4.7
2018-Aug-05 00:00N 50°36' W 000°43'3 6.0
2018-Aug-04 23:30N 50°35' W 000°38'4 8.0
2018-Aug-04 23:01N 50°35' W 000°32'5 8.0
2018-Aug-04 22:26N 50°34' W 000°25'22 8.1
2018-Aug-04 19:45N 50°34' E 000°09'5 8.5
2018-Aug-04 19:10N 50°35' E 000°17'1 8.5
2018-Aug-04 18:59N 50°36' E 000°19'4 8.4
2018-Aug-04 18:30N 50°37' E 000°25'4 8.4
2018-Aug-04 18:01N 50°38' E 000°31'4 8.3
2018-Aug-04 17:31N 50°40' E 000°37'4 8.3
2018-Aug-04 17:00N 50°42' E 000°42'4 8.5
2018-Aug-04 16:31N 50°45' E 000°48'4 8.4
2018-Aug-04 15:59N 50°47' E 000°53'4 8.4
2018-Aug-04 15:30N 50°50' E 000°58'4 8.4
2018-Aug-04 15:01N 50°52' E 001°04'4 8.4
2018-Aug-04 14:29N 50°55' E 001°09'4 8.4
2018-Aug-04 14:01N 50°58' E 001°14'4 8.3
2018-Aug-04 13:30N 51°00' E 001°19'4 8.2
2018-Aug-04 13:00N 51°03' E 001°24'4 8.5
2018-Aug-04 12:31N 51°06' E 001°29'4 8.4
2018-Aug-04 12:00N 51°08' E 001°35'4 8.7
2018-Aug-04 11:30N 51°11' E 001°40'4 8.4
2018-Aug-04 11:00N 51°14' E 001°44'4 8.5
2018-Aug-04 10:31N 51°18' E 001°47'4 8.6
2018-Aug-04 10:00N 51°22' E 001°50'  
Track history (hours):
 
Tides and Currents Weather Stations Pressure Air Temp Water Temp Dewpoint Dewpoint Depression Visibility Wind Speed Wind Dir Waves Ship Positions

Oceanographic research ship James Clark Ross (UK)

Detailed information on ship capabilities available from University of Delaware's Ocean Information Center and ARCUS's ALIAS (Arctic Logistics Information and Support) project.

Last reported at 2018-Aug-14 09:34 UTC. Time now 2018-Aug-15 12:39 UTC.
Position N 57°26' E 010°33'.

Length 99 m; beam 18.8 m; draft 6.3 m.

Type: Ship. MMSI: 740339000.

Date/timePositionNaut miles runAvg speedWind from/ knotsBaromVisibWave heightAir tempDewpointWater temp
2018-Aug-14 09:34N 57°26' E 010°33'0 0.4
2018-Aug-14 09:27N 57°26' E 010°33'2 4.0
2018-Aug-14 08:59N 57°25' E 010°36'4 8.0
2018-Aug-14 08:29N 57°26' E 010°43'5 9.4
2018-Aug-14 08:00N 57°31' E 010°43'4 9.0
2018-Aug-14 07:30N 57°35' E 010°44'5 9.4
2018-Aug-14 07:00N 57°40' E 010°44'5 9.3
2018-Aug-14 06:30N 57°45' E 010°45'4 7.8
2018-Aug-14 06:00N 57°48' E 010°41'5 9.1
2018-Aug-14 05:30N 57°49' E 010°32'5 9.2
2018-Aug-14 05:00N 57°48' E 010°24'308 9.3
2018-Aug-12 19:54N 53°42' E 004°53'910.0
2018-Aug-12 18:59N 53°34' E 004°47'611.4
2018-Aug-12 18:29N 53°28' E 004°44'510.8
2018-Aug-12 18:00N 53°24' E 004°41'5 9.9
2018-Aug-12 17:30N 53°19' E 004°38'510.0
2018-Aug-12 17:01N 53°15' E 004°34'510.1
2018-Aug-12 16:30N 53°10' E 004°31'510.0
2018-Aug-12 16:00N 53°05' E 004°27'510.1
2018-Aug-12 15:30N 53°01' E 004°23'510.0
2018-Aug-12 15:00N 52°57' E 004°19'510.1
2018-Aug-12 14:30N 52°52' E 004°15'510.1
2018-Aug-12 14:00N 52°48' E 004°11'510.0
2018-Aug-12 13:29N 52°44' E 004°06'510.4
2018-Aug-12 13:00N 52°40' E 003°60'510.6
2018-Aug-12 12:30N 52°36' E 003°54'510.2
2018-Aug-12 11:59N 52°32' E 003°48'510.5
2018-Aug-12 11:28N 52°29' E 003°42'510.6
2018-Aug-12 11:00N 52°25' E 003°36'510.5
2018-Aug-12 10:30N 52°21' E 003°30'510.4
2018-Aug-12 09:59N 52°17' E 003°24'510.3
2018-Aug-12 09:30N 52°14' E 003°18'3610.3
2018-Aug-12 06:02N 51°48' E 002°38'010.4
2018-Aug-12 06:00N 51°48' E 002°38'610.4
2018-Aug-12 05:28N 51°43' E 002°32'510.3
2018-Aug-12 05:00N 51°40' E 002°27'510.3
2018-Aug-12 04:31N 51°36' E 002°21'510.3
2018-Aug-12 04:00N 51°32' E 002°16'510.3
2018-Aug-12 03:30N 51°28' E 002°11'510.3
2018-Aug-12 03:00N 51°23' E 002°07'510.4
2018-Aug-12 02:31N 51°18' E 002°06'510.1
2018-Aug-12 02:01N 51°13' E 002°03'510.3
2018-Aug-12 01:30N 51°11' E 001°56'510.3
2018-Aug-12 01:00N 51°09' E 001°48'510.2
2018-Aug-12 00:30N 51°05' E 001°42'510.5
2018-Aug-12 00:01N 51°02' E 001°36'510.6
2018-Aug-11 23:30N 50°58' E 001°31'510.5
2018-Aug-11 23:00N 50°53' E 001°26'510.6
2018-Aug-11 22:30N 50°48' E 001°24'510.6
2018-Aug-11 22:00N 50°43' E 001°21'610.3
2018-Aug-11 21:25N 50°39' E 001°15'1510.4
2018-Aug-11 19:56N 50°30' E 000°55'2810.4
2018-Aug-11 17:13N 50°22' E 000°12'1610.4
2018-Aug-11 15:40N 50°21' W 000°13'210.5
2018-Aug-11 15:31N 50°21' W 000°16'910.3
2018-Aug-11 14:36N 50°24' W 000°29'1611.0
2018-Aug-11 13:09N 50°35' W 000°48'2 9.8
2018-Aug-11 12:54N 50°36' W 000°51'410.2
2018-Aug-11 12:30N 50°37' W 000°57'511.0
2018-Aug-11 12:00N 50°43' W 000°59'510.9
2018-Aug-11 11:30N 50°45' W 001°07'510.8
2018-Aug-11 11:00N 50°48' W 001°14'5 9.0
2018-Aug-11 10:30N 50°51' W 001°20'4 7.4
2018-Aug-11 10:00N 50°53' W 001°24'0 0.0
2018-Aug-11 09:27N 50°54' W 001°24'0 0.0
2018-Aug-11 08:58N 50°54' W 001°24'0 0.0
2018-Aug-11 08:28N 50°54' W 001°24'0 0.0
2018-Aug-11 07:58N 50°54' W 001°24'0 0.0
2018-Aug-11 07:28N 50°54' W 001°24'0 0.0
2018-Aug-11 06:58N 50°54' W 001°24'0 0.0
2018-Aug-11 06:28N 50°54' W 001°24'0 0.0
2018-Aug-11 05:58N 50°54' W 001°24'0 0.0
2018-Aug-11 05:28N 50°54' W 001°24'0 0.0
2018-Aug-11 04:58N 50°54' W 001°24'0 0.0
2018-Aug-11 04:25N 50°54' W 001°24'0 0.0
2018-Aug-11 03:58N 50°54' W 001°24'0 0.0
2018-Aug-11 03:28N 50°54' W 001°24'0 0.0
2018-Aug-11 02:58N 50°54' W 001°24'0 0.0
2018-Aug-11 02:28N 50°54' W 001°24'0 0.0
2018-Aug-11 01:49N 50°54' W 001°24'0 0.0
2018-Aug-11 01:28N 50°54' W 001°24'0 0.0
2018-Aug-11 00:58N 50°54' W 001°24'0 0.0
2018-Aug-11 00:25N 50°54' W 001°24'0 0.0
2018-Aug-10 23:58N 50°54' W 001°24'0 0.0
2018-Aug-10 23:25N 50°54' W 001°24'0 0.0
2018-Aug-10 22:58N 50°54' W 001°24'0 0.0
2018-Aug-10 22:31N 50°54' W 001°24'0 0.0
2018-Aug-10 21:58N 50°54' W 001°24'0 0.0
2018-Aug-10 21:25N 50°54' W 001°24'0 0.0
2018-Aug-10 20:58N 50°54' W 001°24'0 0.0
2018-Aug-10 20:25N 50°54' W 001°24'0 0.0
2018-Aug-10 19:58N 50°54' W 001°24'0 0.0
2018-Aug-10 19:28N 50°54' W 001°24'0 0.0
2018-Aug-10 18:55N 50°54' W 001°24'0 0.0
2018-Aug-10 18:28N 50°54' W 001°24'0 0.0
2018-Aug-10 17:55N 50°54' W 001°24'0 0.0
2018-Aug-10 17:28N 50°54' W 001°24'0 0.0
2018-Aug-10 16:58N 50°54' W 001°24'0 0.0
2018-Aug-10 16:28N 50°54' W 001°24'0 0.0
2018-Aug-10 15:58N 50°54' W 001°24'0 0.0
2018-Aug-10 15:31N 50°54' W 001°24'0 0.0
2018-Aug-10 14:58N 50°54' W 001°24'0 0.0
2018-Aug-10 14:28N 50°54' W 001°24'0 0.0
2018-Aug-10 13:58N 50°54' W 001°24'0 0.0
2018-Aug-10 13:28N 50°54' W 001°24'0 0.0
2018-Aug-10 12:52N 50°54' W 001°24'0 0.0
2018-Aug-10 12:28N 50°54' W 001°24'0 0.0
2018-Aug-10 11:58N 50°54' W 001°24'0 0.0
2018-Aug-10 11:28N 50°54' W 001°24'0 0.0
2018-Aug-10 10:58N 50°54' W 001°24'0 0.0
2018-Aug-10 10:19N 50°54' W 001°24'0 0.0
2018-Aug-10 09:58N 50°54' W 001°24'0 0.0
2018-Aug-10 09:28N 50°54' W 001°24'0 0.0
2018-Aug-10 08:58N 50°54' W 001°24'0 0.0
2018-Aug-10 08:28N 50°54' W 001°24'0 0.0
2018-Aug-10 07:54N 50°54' W 001°24'0 0.0
2018-Aug-10 07:25N 50°54' W 001°24'0 0.0
2018-Aug-10 07:00N 50°54' W 001°24'0 0.0
2018-Aug-10 06:25N 50°54' W 001°24'0 0.0
2018-Aug-10 06:00N 50°54' W 001°24'0 0.0
2018-Aug-10 05:27N 50°54' W 001°24'0 0.0
2018-Aug-10 04:58N 50°54' W 001°24'0 0.0
2018-Aug-10 04:27N 50°54' W 001°24'0 0.0
2018-Aug-10 03:58N 50°54' W 001°24'0 0.0
2018-Aug-10 03:30N 50°54' W 001°24'0 0.0
2018-Aug-10 03:00N 50°54' W 001°24'0 0.0
2018-Aug-10 02:28N 50°54' W 001°24'0 0.0
2018-Aug-10 02:01N 50°54' W 001°24'0 0.0
2018-Aug-10 01:28N 50°54' W 001°24'0 0.0
2018-Aug-10 01:01N 50°54' W 001°24'0 0.0
2018-Aug-10 00:30N 50°54' W 001°24'0 0.0
2018-Aug-10 00:00N 50°54' W 001°24'0 0.0
2018-Aug-09 23:31N 50°54' W 001°24'0 0.0
2018-Aug-09 23:01N 50°54' W 001°24'0 0.0
2018-Aug-09 22:30N 50°54' W 001°24'0 0.0
2018-Aug-09 22:00N 50°54' W 001°24'0 0.0
2018-Aug-09 21:30N 50°54' W 001°24'0 0.0
2018-Aug-09 21:00N 50°54' W 001°24'0 0.0
2018-Aug-09 20:25N 50°54' W 001°24'0 0.0
2018-Aug-09 20:01N 50°54' W 001°24'0 0.0
2018-Aug-09 19:30N 50°54' W 001°24'0 0.0
2018-Aug-09 19:00N 50°54' W 001°24'0 0.0
2018-Aug-09 18:27N 50°54' W 001°24'0 0.0
2018-Aug-09 18:01N 50°54' W 001°24'0 0.0
2018-Aug-09 17:30N 50°54' W 001°24'0 0.0
2018-Aug-09 17:00N 50°54' W 001°24'0 0.0
2018-Aug-09 16:30N 50°54' W 001°24'0 0.0
2018-Aug-09 16:00N 50°54' W 001°24'0 0.0
2018-Aug-09 15:30N 50°54' W 001°24'0 0.0
2018-Aug-09 14:43N 50°54' W 001°24'0 0.0
2018-Aug-09 14:25N 50°54' W 001°24'0 0.0
2018-Aug-09 14:00N 50°54' W 001°24'0 0.0
2018-Aug-09 13:30N 50°54' W 001°24'0 0.0
2018-Aug-09 13:01N 50°54' W 001°24'0 0.0
2018-Aug-09 12:31N 50°54' W 001°24'0 0.0
2018-Aug-09 12:00N 50°54' W 001°24'0 0.0
2018-Aug-09 11:30N 50°54' W 001°24'0 0.0
2018-Aug-09 11:00N 50°54' W 001°24'0 0.0
2018-Aug-09 10:30N 50°54' W 001°24'0 0.0
2018-Aug-09 10:00N 50°54' W 001°24'0 0.0
2018-Aug-09 09:30N 50°54' W 001°24'0 0.0
2018-Aug-09 09:00N 50°54' W 001°24'0 0.0
2018-Aug-09 08:27N 50°54' W 001°24'0 0.0
2018-Aug-09 08:01N 50°54' W 001°24'0 0.0
2018-Aug-09 07:30N 50°54' W 001°24'0 0.0
2018-Aug-09 07:00N 50°54' W 001°24'0 0.0
2018-Aug-09 06:31N 50°54' W 001°24'0 0.0
2018-Aug-09 06:00N 50°54' W 001°24'0 0.0
2018-Aug-09 05:30N 50°54' W 001°24'0 0.0
2018-Aug-09 04:57N 50°54' W 001°24'0 0.0
2018-Aug-09 04:30N 50°54' W 001°24'0 0.0
2018-Aug-09 04:00N 50°54' W 001°24'0 0.0
2018-Aug-09 03:30N 50°54' W 001°24'0 0.0
2018-Aug-09 03:00N 50°54' W 001°24'0 0.0
2018-Aug-09 02:30N 50°54' W 001°24'0 0.0
2018-Aug-09 02:00N 50°54' W 001°24'0 0.0
2018-Aug-09 01:30N 50°54' W 001°24'0 0.0
2018-Aug-09 01:00N 50°54' W 001°24'0 0.0
2018-Aug-09 00:30N 50°54' W 001°24'0 0.0
2018-Aug-09 00:00N 50°54' W 001°24'0 0.0
2018-Aug-08 23:30N 50°54' W 001°24'0 0.0
2018-Aug-08 23:00N 50°54' W 001°24'0 0.0
2018-Aug-08 22:30N 50°54' W 001°24'0 0.0
2018-Aug-08 22:00N 50°54' W 001°24'0 0.0
2018-Aug-08 21:30N 50°54' W 001°24'0 0.0
2018-Aug-08 21:00N 50°54' W 001°24'0 0.0
2018-Aug-08 20:30N 50°54' W 001°24'0 0.0
2018-Aug-08 20:00N 50°54' W 001°24'0 0.0
2018-Aug-08 19:30N 50°54' W 001°24'0 0.0
2018-Aug-08 19:00N 50°54' W 001°24'0 0.0
2018-Aug-08 18:30N 50°54' W 001°24'0 0.0
2018-Aug-08 18:00N 50°54' W 001°24'0 0.0
2018-Aug-08 17:27N 50°54' W 001°24'0 0.0
2018-Aug-08 17:00N 50°54' W 001°24'0 0.0
2018-Aug-08 16:30N 50°54' W 001°24'0 0.0
2018-Aug-08 16:00N 50°54' W 001°24'0 0.0
2018-Aug-08 15:30N 50°54' W 001°24'0 0.0
2018-Aug-08 15:00N 50°54' W 001°24'0 0.0
2018-Aug-08 14:27N 50°54' W 001°24'0 0.0
2018-Aug-08 14:00N 50°54' W 001°24'0 0.0
2018-Aug-08 13:30N 50°54' W 001°24'0 0.0
2018-Aug-08 12:57N 50°54' W 001°24'0 0.0
2018-Aug-08 12:27N 50°54' W 001°24'0 0.0
2018-Aug-08 12:00N 50°54' W 001°24'0 0.0
2018-Aug-08 11:24N 50°54' W 001°24'0 0.0
2018-Aug-08 10:54N 50°54' W 001°24'0 0.0
2018-Aug-08 10:30N 50°54' W 001°24'0 0.0
2018-Aug-08 09:51N 50°54' W 001°24'0 0.0
2018-Aug-08 09:30N 50°54' W 001°24'0 0.0
2018-Aug-08 08:57N 50°54' W 001°24'0 0.0
2018-Aug-08 08:30N 50°54' W 001°24'0 0.0
2018-Aug-08 08:00N 50°54' W 001°24'0 0.0
2018-Aug-08 07:27N 50°54' W 001°24'0 0.0
2018-Aug-08 07:00N 50°54' W 001°24'0 0.0
2018-Aug-08 06:30N 50°54' W 001°24'0 0.0
2018-Aug-08 06:00N 50°54' W 001°24'0 0.0
2018-Aug-08 05:30N 50°54' W 001°24'0 0.0
2018-Aug-08 05:00N 50°54' W 001°24'0 0.0
2018-Aug-08 04:30N 50°54' W 001°24'0 0.0
2018-Aug-08 03:57N 50°54' W 001°24'0 0.0
2018-Aug-08 03:30N 50°54' W 001°24'0 0.0
2018-Aug-08 03:00N 50°54' W 001°24'0 0.0
2018-Aug-08 02:30N 50°54' W 001°24'0 0.0
2018-Aug-08 02:00N 50°54' W 001°24'0 0.0
2018-Aug-08 01:30N 50°54' W 001°24'0 0.0
2018-Aug-08 00:57N 50°54' W 001°24'0 0.0
2018-Aug-08 00:27N 50°54' W 001°24'0 0.0
2018-Aug-07 23:57N 50°54' W 001°24'0 0.0
2018-Aug-07 23:30N 50°54' W 001°24'0 0.0
2018-Aug-07 23:00N 50°54' W 001°24'0 0.0
2018-Aug-07 22:30N 50°54' W 001°24'0 0.0
2018-Aug-07 22:00N 50°54' W 001°24'0 0.0
2018-Aug-07 21:30N 50°54' W 001°24'0 0.0
2018-Aug-07 21:00N 50°54' W 001°24'0 0.0
2018-Aug-07 20:30N 50°54' W 001°24'0 0.0
2018-Aug-07 19:57N 50°54' W 001°24'0 0.0
2018-Aug-07 19:30N 50°54' W 001°24'0 0.0
2018-Aug-07 18:57N 50°54' W 001°24'0 0.0
2018-Aug-07 18:30N 50°54' W 001°24'0 0.0
2018-Aug-07 18:00N 50°54' W 001°24'0 0.0
2018-Aug-07 17:30N 50°54' W 001°24'0 0.0
2018-Aug-07 17:00N 50°54' W 001°24'0 0.0
2018-Aug-07 16:30N 50°54' W 001°24'0 0.0
2018-Aug-07 16:00N 50°54' W 001°24'0 0.0
2018-Aug-07 15:30N 50°54' W 001°24'0 0.0
2018-Aug-07 15:00N 50°54' W 001°24'0 0.0
2018-Aug-07 14:30N 50°54' W 001°24'0 0.0
2018-Aug-07 14:00N 50°54' W 001°24'0 0.0
2018-Aug-07 13:30N 50°54' W 001°24'0 0.0
2018-Aug-07 13:00N 50°54' W 001°24'0 0.0
2018-Aug-07 12:27N 50°54' W 001°24'0 0.0
2018-Aug-07 12:00N 50°54' W 001°24'0 0.0
2018-Aug-07 11:30N 50°54' W 001°24'0 0.0
2018-Aug-07 11:00N 50°54' W 001°24'0 0.0
2018-Aug-07 10:30N 50°54' W 001°24'0 0.0
2018-Aug-07 10:00N 50°54' W 001°24'0 0.0
2018-Aug-07 09:30N 50°54' W 001°24'0 0.0
2018-Aug-07 09:00N 50°54' W 001°24'0 0.0
2018-Aug-07 08:30N 50°54' W 001°24'0 0.0
2018-Aug-07 08:00N 50°54' W 001°24'0 0.0
2018-Aug-07 07:30N 50°54' W 001°24'0 0.0
2018-Aug-07 07:00N 50°54' W 001°24'0 0.0
2018-Aug-07 06:30N 50°54' W 001°24'0 0.0
2018-Aug-07 06:00N 50°54' W 001°24'0 0.0
2018-Aug-07 05:30N 50°54' W 001°24'0 0.0
2018-Aug-07 05:00N 50°54' W 001°24'0 0.0
2018-Aug-07 04:27N 50°54' W 001°24'0 0.0
2018-Aug-07 04:00N 50°54' W 001°24'0 0.0
2018-Aug-07 03:30N 50°54' W 001°24'0 0.0
2018-Aug-07 03:00N 50°54' W 001°24'0 0.0
2018-Aug-07 02:30N 50°54' W 001°24'0 0.0
2018-Aug-07 02:00N 50°54' W 001°24'0 0.0
2018-Aug-07 01:30N 50°54' W 001°24'0 0.0
2018-Aug-07 01:00N 50°54' W 001°24'0 0.0
2018-Aug-07 00:30N 50°54' W 001°24'0 0.0
2018-Aug-07 00:00N 50°54' W 001°24'0 0.0
2018-Aug-06 23:30N 50°54' W 001°24'0 0.0
2018-Aug-06 23:00N 50°54' W 001°24'0 0.0
2018-Aug-06 22:30N 50°54' W 001°24'0 0.0
2018-Aug-06 22:00N 50°54' W 001°24'0 0.0
2018-Aug-06 21:30N 50°54' W 001°24'0 0.0
2018-Aug-06 21:00N 50°54' W 001°24'0 0.0
2018-Aug-06 20:30N 50°54' W 001°24'0 0.0
2018-Aug-06 20:00N 50°54' W 001°24'0 0.0
2018-Aug-06 19:30N 50°54' W 001°24'0 0.0
2018-Aug-06 19:00N 50°54' W 001°24'0 0.0
2018-Aug-06 18:30N 50°54' W 001°24'0 0.0
2018-Aug-06 18:00N 50°54' W 001°24'0 0.0
2018-Aug-06 17:30N 50°54' W 001°24'0 0.0
2018-Aug-06 17:00N 50°54' W 001°24'0 0.0
2018-Aug-06 16:30N 50°54' W 001°24'0 0.0
2018-Aug-06 15:57N 50°54' W 001°24'0 0.0
2018-Aug-06 15:30N 50°54' W 001°24'0 0.0
2018-Aug-06 15:00N 50°54' W 001°24'0 0.0
2018-Aug-06 14:30N 50°54' W 001°24'0 0.0
2018-Aug-06 14:00N 50°54' W 001°24'0 0.0
2018-Aug-06 13:30N 50°54' W 001°24'0 0.0
2018-Aug-06 12:57N 50°54' W 001°24'0 0.0
2018-Aug-06 12:30N 50°54' W 001°24'0 0.0
2018-Aug-06 12:00N 50°54' W 001°24'0 0.0
2018-Aug-06 11:30N 50°54' W 001°24'0 0.0
2018-Aug-06 10:54N 50°54' W 001°24'0 0.0
2018-Aug-06 10:30N 50°54' W 001°24'0 0.0
2018-Aug-06 09:54N 50°54' W 001°24'0 0.0
2018-Aug-06 09:30N 50°54' W 001°24'0 0.0
2018-Aug-06 09:00N 50°54' W 001°24'0 0.0
2018-Aug-06 08:30N 50°54' W 001°24'0 0.0
2018-Aug-06 08:00N 50°54' W 001°24'0 0.0
2018-Aug-06 07:30N 50°54' W 001°24'0 0.0
2018-Aug-06 06:57N 50°54' W 001°24'0 0.0
2018-Aug-06 06:30N 50°54' W 001°24'0 0.0
2018-Aug-06 06:00N 50°54' W 001°24'0 0.0
2018-Aug-06 05:30N 50°54' W 001°24'0 0.0
2018-Aug-06 05:00N 50°54' W 001°24'0 0.0
2018-Aug-06 04:30N 50°54' W 001°24'0 0.0
2018-Aug-06 03:57N 50°54' W 001°24'0 0.0
2018-Aug-06 03:30N 50°54' W 001°24'0 0.0
2018-Aug-06 03:00N 50°54' W 001°24'0 0.0
2018-Aug-06 02:27N 50°54' W 001°24'0 0.0
2018-Aug-06 02:00N 50°54' W 001°24'0 0.0
2018-Aug-06 01:30N 50°54' W 001°24'0 0.0
2018-Aug-06 01:00N 50°54' W 001°24'0 0.0
2018-Aug-06 00:30N 50°54' W 001°24'0 0.0
2018-Aug-06 00:00N 50°54' W 001°24'0 0.0
2018-Aug-05 23:30N 50°54' W 001°24'0 0.0
2018-Aug-05 22:57N 50°54' W 001°24'0 0.0
2018-Aug-05 22:30N 50°54' W 001°24'0 0.0
2018-Aug-05 22:00N 50°54' W 001°24'0 0.0
2018-Aug-05 21:30N 50°54' W 001°24'0 0.0
2018-Aug-05 21:00N 50°54' W 001°24'0 0.0
2018-Aug-05 20:30N 50°54' W 001°24'0 0.0
2018-Aug-05 20:00N 50°54' W 001°24'0 0.0
2018-Aug-05 19:30N 50°54' W 001°24'0 0.0
2018-Aug-05 19:00N 50°54' W 001°24'0 0.0
2018-Aug-05 18:30N 50°54' W 001°24'0 0.0
2018-Aug-05 18:00N 50°54' W 001°24'0 0.0
2018-Aug-05 17:30N 50°54' W 001°24'0 0.0
2018-Aug-05 17:00N 50°54' W 001°24'0 0.0
2018-Aug-05 16:30N 50°54' W 001°24'0 0.0
2018-Aug-05 16:00N 50°54' W 001°24'0 0.0
2018-Aug-05 15:27N 50°54' W 001°24'0 0.0
2018-Aug-05 15:00N 50°54' W 001°24'0 0.0
2018-Aug-05 13:57N 50°54' W 001°24'0 0.0
2018-Aug-05 13:30N 50°54' W 001°24'0 0.0
2018-Aug-05 12:57N 50°54' W 001°24'0 0.0
2018-Aug-05 12:30N 50°54' W 001°24'0 0.0
2018-Aug-05 12:00N 50°54' W 001°24'0 0.0
2018-Aug-05 11:30N 50°54' W 001°24'0 0.0
2018-Aug-05 11:00N 50°54' W 001°24'0 0.0
2018-Aug-05 10:30N 50°54' W 001°24'0 0.0
2018-Aug-05 10:00N 50°54' W 001°24'0 0.0
2018-Aug-05 09:30N 50°54' W 001°24'0 0.0
2018-Aug-05 09:00N 50°54' W 001°24'0 0.0
2018-Aug-05 08:30N 50°54' W 001°24'0 0.0
2018-Aug-05 07:57N 50°54' W 001°24'0 0.0
2018-Aug-05 07:30N 50°54' W 001°24'0 0.0
2018-Aug-05 07:00N 50°54' W 001°24'0 0.0
2018-Aug-05 06:30N 50°54' W 001°24'0 0.0
2018-Aug-05 06:00N 50°54' W 001°24'0 0.0
2018-Aug-05 05:30N 50°54' W 001°24'0 0.1
2018-Aug-05 05:00N 50°53' W 001°24'2 3.7
2018-Aug-05 04:30N 50°52' W 001°22'4 8.5
2018-Aug-05 04:01N 50°49' W 001°18'3 6.1
2018-Aug-05 03:30N 50°46' W 001°15'714.7
2018-Aug-05 03:00N 50°44' W 001°04'510.1
2018-Aug-05 02:30N 50°41' W 000°58'2 3.1
2018-Aug-05 02:01N 50°39' W 000°58'3 6.3
2018-Aug-05 01:30N 50°37' W 000°54'3 5.5
2018-Aug-05 01:01N 50°37' W 000°50'2 4.5
2018-Aug-05 00:30N 50°36' W 000°47'2 4.7
2018-Aug-05 00:00N 50°36' W 000°43'3 6.0
2018-Aug-04 23:30N 50°35' W 000°38'4 8.0
2018-Aug-04 23:01N 50°35' W 000°32'5 8.0
2018-Aug-04 22:26N 50°34' W 000°25'22 8.1
2018-Aug-04 19:45N 50°34' E 000°09'5 8.5
2018-Aug-04 19:10N 50°35' E 000°17'1 8.5
2018-Aug-04 18:59N 50°36' E 000°19'4 8.4
2018-Aug-04 18:30N 50°37' E 000°25'4 8.4
2018-Aug-04 18:01N 50°38' E 000°31'4 8.3
2018-Aug-04 17:31N 50°40' E 000°37'4 8.3
2018-Aug-04 17:00N 50°42' E 000°42'4 8.5
2018-Aug-04 16:31N 50°45' E 000°48'4 8.4
2018-Aug-04 15:59N 50°47' E 000°53'4 8.4
2018-Aug-04 15:30N 50°50' E 000°58'4 8.4
2018-Aug-04 15:01N 50°52' E 001°04'4 8.4
2018-Aug-04 14:29N 50°55' E 001°09'4 8.4
2018-Aug-04 14:01N 50°58' E 001°14'4 8.3
2018-Aug-04 13:30N 51°00' E 001°19'4 8.2
2018-Aug-04 13:00N 51°03' E 001°24'4 8.5
2018-Aug-04 12:31N 51°06' E 001°29'4 8.4
2018-Aug-04 12:00N 51°08' E 001°35'4 8.7
2018-Aug-04 11:30N 51°11' E 001°40'4 8.4
2018-Aug-04 11:00N 51°14' E 001°44'4 8.5
2018-Aug-04 10:31N 51°18' E 001°47'4 8.6
2018-Aug-04 10:00N 51°22' E 001°50'  

Dump ship's entire track history